aviador You're here:

LZIB Decoded Metar

BRATISLAVA in SLOVAKIA
Report Time2017-11-24 01:30:00
UTC Time2017-11-24 02:05:40
Flight Rules lifr LIFR
Wind040° at 03 kt
W.Decomp.*RWY 04: 3.0 kt HW 0.2 kt LCW
RWY 31: 0.2 kt HW 3.0 kt RCW
W.Rank040° ranks 6
Current wind is below 040° avg. (5.0)
Visibility7000 m
Phenomena:N/A
Clouds:Broken 004 Hf
Broken 006 Hf
Ceiling400 ft
Temp05°C (ISA -9)
Dew Point05°C (100% RH)
AAT2.8°C
QNH1019 hPa
Density Alt-745 ft
Elevation440 ft
Report Wrong Elevation
Raw Report
LZIB 240130Z 04003KT 7000 BKN004 BKN006 05/05 Q1019=

Extra information for LZIB:More info

Metar Taf Metar & Taf Last 4 Metars F.Rules Stats Wind Profile Meteogram Temp Stats Airport Information Weather charts Add Link Nearby VenuesMetar ALERT Operation Metar Decoded Social comments